LTAFHESH

Guest
Details From LTAF - Adana
To HESH - Sharm El Sheikh Intl
Flight Number -
Tags Generated
Created
Modified
Stats Distance 543 nm / 1,006 km
Max Altitude 0 ft / 0 m
Waypoints 4
Social Downloads 0
Likes 0
Share VATSIM

Download

Looking for another format? Having issues loading an existing format? Contact us
Advertisement - Login to hide

Notes

Generated

Route

LTAF BGN32 R1836 HESH

ID Type Via Altitude Latitude Longitude Leg Dist Tot Dist Heading (true) Name
O LTAF APT - 0 ft / 0 m 36.97482˚ 35.26802˚ - 0 nm - -
BGN32 FIX - 0 ft / 0 m 32.14055˚ 34.78161˚ 291 nm 291 nm 185° / 185° -
R1836 FIX - 0 ft / 0 m 27.96850˚ 34.38263˚ 251 nm 542 nm 185° / 185° -
O HESH APT - 0 ft / 0 m 27.96574˚ 34.38598˚ 0 nm 542 nm 133° / 133° -

Altitude Profile

Advertisement - Login to hide

Weather


0- 5 10 15 20 25 30 35+ Temperature / ° C

Clouds and Precipitation
Forecast for 2017-12-14 00:00 UTC. Updated 2 hours ago

Ground ~20,000 ft ~40,000 ft Winds

LTAF

Details ICAO LTAF (ADA)
Name ADANA
Region Turkey
Timezone Europe/Istanbul (UTC+3.0)
Stats Elevation 65 ft / 20 m (AMSL)
Location 36.982142° 35.280394°
Runways 1
Magnetic Variation 5.352° E

METAR

LTAF 132250Z 24004KT CAVOK 07/05 Q1017 NOSIG

Decode

TAF

Not found

Departure Runways

ID Width Length Bearing (true) Bearing (mag) Surface Threshold Offset Overrun Length
05 148 ft / 45 m 8,979 ft / 2,737 m 53.45° 48.10° Asphalt 0 ft / 0 m 197 ft / 60 m
23 148 ft / 45 m 8,979 ft / 2,737 m 233.47° 228.12° Asphalt 0 ft / 0 m 197 ft / 60 m

HESH

Details ICAO HESH (SSH)
Name SHARM EL SHEIKH INTL
Region Egypt
Timezone Africa/Cairo (UTC+2.0)
Stats Elevation 143 ft / 44 m (AMSL)
Location 27.977318° 34.394945°
Runways 2
Magnetic Variation 4.281° E

METAR

HESH 132200Z 36019KT CAVOK 21/09 Q1015 NOSIG

Decode

TAF

Not found

Destination Runways

ID Width Length Bearing (true) Bearing (mag) Surface Threshold Offset Overrun Length
04L 148 ft / 45 m 10,120 ft / 3,085 m 42.65° 38.37° Asphalt 0 ft / 0 m 200 ft / 61 m
04R 148 ft / 45 m 10,121 ft / 3,085 m 42.65° 38.37° Asphalt 0 ft / 0 m 200 ft / 61 m
22L 148 ft / 45 m 10,121 ft / 3,085 m 222.66° 218.38° Asphalt 0 ft / 0 m 200 ft / 61 m
22R 148 ft / 45 m 10,120 ft / 3,085 m 222.66° 218.38° Asphalt 0 ft / 0 m 200 ft / 61 m

Approach Navaids

Runway Type Ident Frequency Range Bearing (true) Bearing (mag) Slope Elevation
04L Localiser KIL 109.50 MHz 18 nm / 33 km 42.67° 38.39° - 130 ft / 40 m (AMSL)
04L Glidescope KIL 109.50 MHz 10 nm / 19 km 42.65° 38.37° 3.00° 160 ft / 49 m (AMSL)
04L DME KIL 109.50 MHz 18 nm / 33 km - - - 160 ft / 49 m (AMSL)